Time;durP1;ratioP1;P1;durP2;ratioP2;P2;SDS_P1;SDS_P2;PMS_P1;PMS_P2;Temp;Humidity;BMP_temperature;BMP_pressure;BME280_temperature;BME280_humidity;BME280_pressure;Samples;Min_cycle;Max_cycle;Signal;HPM_P1;HPM_P2
2022/11/17 00:02:09;;;;;;;4.93;2.83;;;;;;;;;;5085288;28;20232;-86
2022/11/17 00:04:37;;;;;;;7.50;2.70;;;;;;;;;;5066606;28;20202;-85
2022/11/17 00:07:04;;;;;;;6.00;2.30;;;;;;;;;;5076261;28;20723;-84
2022/11/17 00:09:32;;;;;;;3.83;2.30;;;;;;;;;;5076889;28;20244;-84
2022/11/17 00:14:44;;;;;;;5.17;2.33;;;;;;;;;;5057667;28;20252;-84
2022/11/17 00:17:12;;;;;;;4.23;2.50;;;;;;;;;;5075895;28;20255;-86
2022/11/17 00:22:33;;;;;;;4.03;2.50;;;;;;;;;;5032352;28;20226;-85
2022/11/17 00:25:02;;;;;;;5.40;3.50;;;;;;;;;;5059453;28;20658;-86
2022/11/17 00:27:29;;;;;;;8.47;5.00;;;;;;;;;;5052804;28;20232;-86
2022/11/17 00:29:56;;;;;;;2.80;2.60;;;;;;;;;;5056674;28;20233;-85
2022/11/17 00:35:08;;;;;;;3.17;2.20;;;;;;;;;;5056680;28;20213;-86
2022/11/17 00:37:37;;;;;;;3.93;2.17;;;;;;;;;;5052688;28;20737;-85
2022/11/17 00:40:06;;;;;;;3.47;2.40;;;;;;;;;;5044230;28;20654;-86
2022/11/17 00:42:33;;;;;;;2.80;2.07;;;;;;;;;;5065463;28;20236;-85
2022/11/17 00:45:00;;;;;;;3.30;2.43;;;;;;;;;;5045131;28;20571;-86
2022/11/17 00:47:27;;;;;;;3.53;2.93;;;;;;;;;;5058282;28;20858;-85
2022/11/17 00:49:55;;;;;;;2.33;2.13;;;;;;;;;;5057201;28;20237;-86
2022/11/17 00:52:22;;;;;;;4.97;2.30;;;;;;;;;;5064314;28;20272;-85
2022/11/17 00:54:49;;;;;;;2.90;2.37;;;;;;;;;;5036976;28;20211;-85
2022/11/17 00:57:17;;;;;;;2.37;2.17;;;;;;;;;;5068985;28;20233;-85
2022/11/17 00:59:44;;;;;;;3.27;2.27;;;;;;;;;;5065892;28;20553;-85
2022/11/17 01:02:11;;;;;;;2.70;2.30;;;;;;;;;;5075230;28;20240;-87
2022/11/17 01:04:38;;;;;;;2.57;2.20;;;;;;;;;;5076038;28;20216;-84
2022/11/17 01:07:05;;;;;;;2.43;2.20;;;;;;;;;;5057084;28;20260;-84
2022/11/17 01:09:32;;;;;;;3.10;2.27;;;;;;;;;;5072672;28;20235;-86
2022/11/17 01:12:00;;;;;;;3.03;2.40;;;;;;;;;;5074986;28;20248;-84
2022/11/17 01:14:31;;;;;;;2.33;2.13;;;;;;;;;;5076096;28;20202;-84
2022/11/17 01:16:58;;;;;;;3.90;2.53;;;;;;;;;;5075674;28;20747;-85
2022/11/17 01:19:25;;;;;;;2.73;2.30;;;;;;;;;;5075232;28;20224;-86
2022/11/17 01:21:53;;;;;;;2.60;2.20;;;;;;;;;;5074595;28;20740;-84
2022/11/17 01:24:20;;;;;;;2.50;2.30;;;;;;;;;;5060114;28;20202;-84
2022/11/17 01:26:49;;;;;;;3.93;2.30;;;;;;;;;;5053308;28;20226;-85
2022/11/17 01:29:16;;;;;;;2.00;1.90;;;;;;;;;;5055256;28;20202;-85
2022/11/17 01:31:46;;;;;;;2.23;2.13;;;;;;;;;;5056240;28;20233;-87
2022/11/17 01:34:13;;;;;;;2.80;2.60;;;;;;;;;;5055952;28;20233;-85
2022/11/17 01:39:22;;;;;;;2.50;2.30;;;;;;;;;;5060187;28;20189;-84
2022/11/17 01:41:49;;;;;;;6.30;3.07;;;;;;;;;;5064916;28;20226;-85
2022/11/17 01:44:35;;;;;;;8.07;5.73;;;;;;;;;;5056346;28;20222;-84
2022/11/17 01:47:04;;;;;;;13.17;6.90;;;;;;;;;;5053951;28;20225;-84
2022/11/17 01:49:31;;;;;;;11.00;6.03;;;;;;;;;;5054925;28;20232;-85
2022/11/17 01:52:02;;;;;;;6.10;3.87;;;;;;;;;;5070228;28;20226;-85
2022/11/17 01:54:30;;;;;;;4.90;2.47;;;;;;;;;;5054911;28;20206;-85
2022/11/17 01:56:58;;;;;;;11.97;3.97;;;;;;;;;;5073609;28;20229;-84
2022/11/17 01:59:28;;;;;;;4.73;2.73;;;;;;;;;;5054055;28;20221;-86
2022/11/17 02:01:55;;;;;;;7.57;2.40;;;;;;;;;;5074339;28;20619;-85
2022/11/17 02:04:24;;;;;;;3.33;2.30;;;;;;;;;;5049337;28;20210;-84
2022/11/17 02:06:53;;;;;;;14.50;7.57;;;;;;;;;;5054453;28;20257;-84
2022/11/17 02:09:20;;;;;;;2.40;2.20;;;;;;;;;;5054974;28;20206;-85
2022/11/17 02:11:48;;;;;;;3.20;2.10;;;;;;;;;;5054704;28;20241;-85
2022/11/17 02:14:15;;;;;;;4.90;2.47;;;;;;;;;;5055600;28;20584;-83
2022/11/17 02:16:42;;;;;;;3.23;2.10;;;;;;;;;;5073725;28;20240;-85
2022/11/17 02:19:10;;;;;;;3.40;2.30;;;;;;;;;;5075102;28;20194;-85
2022/11/17 02:21:50;;;;;;;2.53;2.33;;;;;;;;;;5075087;28;20577;-84
2022/11/17 02:24:35;;;;;;;3.53;2.30;;;;;;;;;;5066848;28;20226;-85
2022/11/17 02:27:19;;;;;;;2.10;2.00;;;;;;;;;;5056592;22;20235;-80
2022/11/17 02:29:51;;;;;;;2.20;2.10;;;;;;;;;;5007668;28;20226;-80
2022/11/17 02:32:23;;;;;;;3.07;2.30;;;;;;;;;;5019678;28;20230;-80
2022/11/17 02:34:55;;;;;;;5.17;3.17;;;;;;;;;;5030652;28;20214;-80
2022/11/17 02:37:25;;;;;;;2.37;2.17;;;;;;;;;;5017532;28;20239;-80
2022/11/17 02:39:56;;;;;;;5.57;2.40;;;;;;;;;;5012476;28;20596;-80
2022/11/17 02:45:11;;;;;;;5.17;2.30;;;;;;;;;;5011681;28;20569;-80
2022/11/17 02:47:40;;;;;;;2.43;2.20;;;;;;;;;;5011370;28;20239;-80
2022/11/17 02:50:09;;;;;;;2.77;2.30;;;;;;;;;;5012007;28;20306;-80
2022/11/17 02:52:36;;;;;;;3.87;2.10;;;;;;;;;;5003737;28;20228;-80
2022/11/17 02:55:04;;;;;;;3.50;2.60;;;;;;;;;;5008261;28;20207;-80
2022/11/17 02:57:34;;;;;;;4.77;3.03;;;;;;;;;;5009708;28;20247;-80
2022/11/17 03:00:02;;;;;;;4.03;2.40;;;;;;;;;;5010203;28;20689;-79
2022/11/17 03:02:38;;;;;;;2.00;1.90;;;;;;;;;;5011135;28;20231;-79
2022/11/17 03:05:10;;;;;;;3.43;2.10;;;;;;;;;;4999375;28;20286;-80
2022/11/17 03:07:46;;;;;;;2.67;2.23;;;;;;;;;;5011213;28;20243;-80
2022/11/17 03:10:15;;;;;;;2.10;1.87;;;;;;;;;;5011671;28;20285;-80
2022/11/17 03:12:47;;;;;;;2.40;2.10;;;;;;;;;;5011188;28;20227;-80
2022/11/17 03:15:23;;;;;;;2.10;1.97;;;;;;;;;;5011627;28;20223;-80
2022/11/17 03:17:53;;;;;;;3.57;1.93;;;;;;;;;;5030322;28;20715;-80
2022/11/17 03:20:22;;;;;;;6.33;2.13;;;;;;;;;;5031345;28;20199;-80
2022/11/17 03:22:51;;;;;;;2.10;1.87;;;;;;;;;;5030703;28;20337;-80
2022/11/17 03:25:21;;;;;;;1.90;1.80;;;;;;;;;;5031163;28;20199;-80
2022/11/17 03:27:53;;;;;;;2.43;2.03;;;;;;;;;;5030349;28;20359;-79
2022/11/17 03:30:21;;;;;;;2.40;2.30;;;;;;;;;;5030545;28;20766;-80
2022/11/17 03:32:50;;;;;;;2.00;1.70;;;;;;;;;;5030944;28;20237;-80
2022/11/17 03:35:18;;;;;;;1.93;1.83;;;;;;;;;;5031091;28;20871;-80
2022/11/17 03:37:48;;;;;;;1.97;1.87;;;;;;;;;;5030645;28;20309;-80
2022/11/17 03:40:18;;;;;;;1.90;1.80;;;;;;;;;;5030980;28;20191;-80
2022/11/17 03:42:51;;;;;;;3.30;1.90;;;;;;;;;;5030676;28;20242;-80
2022/11/17 03:45:21;;;;;;;3.30;1.97;;;;;;;;;;5030937;28;20203;-79
2022/11/17 03:47:50;;;;;;;2.10;1.87;;;;;;;;;;5030536;28;20230;-80
2022/11/17 03:50:19;;;;;;;2.30;1.80;;;;;;;;;;5030679;28;20230;-80
2022/11/17 03:52:46;;;;;;;2.10;2.00;;;;;;;;;;5030804;28;20219;-80
2022/11/17 03:55:14;;;;;;;1.80;1.63;;;;;;;;;;5030884;28;20203;-80
2022/11/17 03:57:42;;;;;;;1.97;1.60;;;;;;;;;;5029096;28;20667;-80
2022/11/17 04:00:10;;;;;;;1.80;1.57;;;;;;;;;;5030986;28;20210;-80
2022/11/17 04:02:41;;;;;;;1.40;1.40;;;;;;;;;;5030315;28;20258;-80
2022/11/17 04:05:08;;;;;;;3.07;1.70;;;;;;;;;;5030301;28;20207;-80
2022/11/17 04:07:36;;;;;;;3.53;1.80;;;;;;;;;;5028595;28;20234;-80
2022/11/17 04:10:04;;;;;;;1.73;1.63;;;;;;;;;;5030406;28;20199;-80
2022/11/17 04:18:14;;;;;;;2.63;1.87;;;;;;;;;;5021935;28;20583;-80
2022/11/17 04:20:41;;;;;;;2.17;2.07;;;;;;;;;;5030185;28;20238;-81
2022/11/17 04:23:10;;;;;;;1.20;1.20;;;;;;;;;;5028587;28;20209;-80
2022/11/17 04:28:36;;;;;;;2.20;1.97;;;;;;;;;;5030859;28;20341;-79
2022/11/17 04:31:04;;;;;;;1.50;1.50;;;;;;;;;;5029392;28;20242;-80
2022/11/17 04:33:32;;;;;;;1.50;1.50;;;;;;;;;;5029489;28;20222;-80
2022/11/17 04:35:59;;;;;;;1.80;1.70;;;;;;;;;;5032782;28;20230;-80
2022/11/17 04:38:27;;;;;;;3.10;1.57;;;;;;;;;;5033422;28;20199;-80
2022/11/17 04:43:38;;;;;;;1.70;1.60;;;;;;;;;;5018415;28;20205;-81
2022/11/17 04:46:06;;;;;;;1.40;1.40;;;;;;;;;;5028901;28;20223;-80
2022/11/17 04:48:34;;;;;;;2.20;1.50;;;;;;;;;;5030025;28;20207;-80
2022/11/17 04:51:01;;;;;;;1.90;1.80;;;;;;;;;;5033556;28;20690;-80
2022/11/17 04:53:30;;;;;;;2.93;1.90;;;;;;;;;;5034111;28;20663;-80
2022/11/17 04:56:00;;;;;;;1.83;1.73;;;;;;;;;;5033526;28;20317;-80
2022/11/17 04:58:27;;;;;;;1.90;1.80;;;;;;;;;;5033084;28;20261;-80
2022/11/17 05:00:54;;;;;;;1.80;1.70;;;;;;;;;;5033708;28;20241;-80
2022/11/17 05:03:21;;;;;;;4.83;1.90;;;;;;;;;;5032108;28;20211;-81
2022/11/17 05:05:49;;;;;;;1.70;1.50;;;;;;;;;;5023647;28;20238;-80
2022/11/17 05:08:17;;;;;;;2.47;1.90;;;;;;;;;;5032471;28;20611;-80
2022/11/17 05:13:28;;;;;;;1.93;1.83;;;;;;;;;;5032678;28;20202;-80
2022/11/17 05:18:42;;;;;;;2.50;1.80;;;;;;;;;;5013379;28;20564;-80
2022/11/17 05:21:11;;;;;;;3.13;1.90;;;;;;;;;;5026252;28;20233;-80
2022/11/17 05:23:52;;;;;;;1.90;1.80;;;;;;;;;;5037006;28;20207;-80
2022/11/17 05:26:20;;;;;;;1.70;1.60;;;;;;;;;;5032886;28;20230;-80
2022/11/17 05:28:47;;;;;;;1.90;1.80;;;;;;;;;;5033502;28;20214;-80
2022/11/17 05:31:14;;;;;;;1.70;1.60;;;;;;;;;;5032336;28;20268;-80
2022/11/17 05:33:41;;;;;;;3.10;1.80;;;;;;;;;;5032860;28;20556;-80
2022/11/17 05:36:09;;;;;;;3.53;1.87;;;;;;;;;;5032639;28;20231;-80
2022/11/17 05:38:37;;;;;;;3.07;2.00;;;;;;;;;;5032962;28;20203;-80
2022/11/17 05:41:04;;;;;;;4.53;2.03;;;;;;;;;;5031314;28;20610;-79
2022/11/17 05:43:32;;;;;;;3.77;1.80;;;;;;;;;;5030942;28;20210;-80
2022/11/17 05:45:59;;;;;;;1.83;1.70;;;;;;;;;;5031228;28;20233;-80
2022/11/17 05:48:26;;;;;;;2.53;1.83;;;;;;;;;;5032728;28;20248;-80
2022/11/17 05:50:53;;;;;;;3.73;2.00;;;;;;;;;;5032626;28;20235;-80
2022/11/17 05:53:20;;;;;;;3.57;1.97;;;;;;;;;;5032947;28;20572;-80
2022/11/17 05:55:48;;;;;;;2.17;1.80;;;;;;;;;;5031977;28;20238;-80
2022/11/17 05:58:17;;;;;;;3.03;1.90;;;;;;;;;;5032654;28;20646;-80
2022/11/17 06:00:45;;;;;;;2.17;1.97;;;;;;;;;;5032287;28;20325;-80
2022/11/17 06:03:14;;;;;;;1.80;1.70;;;;;;;;;;5032738;28;20207;-80
2022/11/17 06:05:41;;;;;;;2.37;2.13;;;;;;;;;;5031768;28;20238;-80
2022/11/17 06:08:08;;;;;;;2.37;1.90;;;;;;;;;;5032426;28;20231;-80
2022/11/17 06:10:35;;;;;;;2.30;2.10;;;;;;;;;;5032197;28;20206;-80
2022/11/17 06:13:04;;;;;;;2.10;2.00;;;;;;;;;;5032883;28;20214;-79
2022/11/17 06:15:31;;;;;;;2.43;2.20;;;;;;;;;;5032035;28;20207;-79
2022/11/17 06:17:59;;;;;;;3.20;1.77;;;;;;;;;;5032071;28;20231;-80
2022/11/17 06:20:28;;;;;;;2.27;2.07;;;;;;;;;;5032105;28;20317;-79
2022/11/17 06:22:56;;;;;;;2.40;2.20;;;;;;;;;;5032441;28;20210;-79
2022/11/17 06:25:23;;;;;;;2.30;2.10;;;;;;;;;;5031884;28;20191;-79
2022/11/17 06:27:51;;;;;;;3.10;2.43;;;;;;;;;;5031988;28;20242;-79
2022/11/17 06:30:19;;;;;;;3.80;2.10;;;;;;;;;;5032116;28;20211;-79
2022/11/17 06:32:48;;;;;;;2.40;2.20;;;;;;;;;;5031898;28;20261;-79
2022/11/17 06:35:15;;;;;;;3.40;2.50;;;;;;;;;;5032136;28;20214;-79
2022/11/17 06:37:42;;;;;;;2.10;2.00;;;;;;;;;;5031409;28;20321;-79
2022/11/17 06:40:12;;;;;;;2.00;1.90;;;;;;;;;;5032098;28;20203;-80
2022/11/17 06:45:28;;;;;;;2.30;2.10;;;;;;;;;;5027788;28;20205;-79
2022/11/17 06:47:55;;;;;;;2.53;2.17;;;;;;;;;;5031527;28;20238;-78
2022/11/17 06:50:22;;;;;;;2.50;2.30;;;;;;;;;;5031614;28;20221;-79
2022/11/17 06:52:49;;;;;;;3.20;2.10;;;;;;;;;;5031621;28;20241;-79
2022/11/17 06:55:17;;;;;;;2.17;1.83;;;;;;;;;;5031556;28;20213;-79
2022/11/17 06:57:44;;;;;;;2.00;1.90;;;;;;;;;;5024426;28;20241;-79
2022/11/17 07:00:12;;;;;;;1.87;1.77;;;;;;;;;;5020558;28;20218;-79
2022/11/17 07:02:40;;;;;;;2.10;1.90;;;;;;;;;;5021297;28;20229;-79
2022/11/17 07:05:08;;;;;;;2.20;2.10;;;;;;;;;;5022066;28;20210;-78
2022/11/17 07:07:35;;;;;;;2.60;2.00;;;;;;;;;;5019465;28;20757;-78
2022/11/17 07:10:02;;;;;;;3.00;2.10;;;;;;;;;;5020345;28;20684;-79
2022/11/17 07:12:29;;;;;;;2.43;2.20;;;;;;;;;;5025042;28;20596;-79
2022/11/17 07:14:56;;;;;;;2.50;2.23;;;;;;;;;;5023998;28;20886;-80
2022/11/17 07:17:23;;;;;;;4.57;2.20;;;;;;;;;;5022123;28;20230;-79
2022/11/17 07:19:53;;;;;;;2.50;2.30;;;;;;;;;;5025054;28;20215;-78
2022/11/17 07:22:20;;;;;;;2.07;1.97;;;;;;;;;;5023669;28;20221;-78
2022/11/17 07:24:47;;;;;;;2.23;2.00;;;;;;;;;;5023395;28;20216;-78
2022/11/17 07:27:14;;;;;;;3.40;1.97;;;;;;;;;;5030294;28;20226;-78
2022/11/17 07:29:41;;;;;;;2.10;1.90;;;;;;;;;;5023615;28;20332;-80
2022/11/17 07:32:11;;;;;;;2.10;2.00;;;;;;;;;;5030914;28;20234;-79
2022/11/17 07:34:38;;;;;;;1.93;1.73;;;;;;;;;;5031141;28;20614;-81
2022/11/17 07:37:06;;;;;;;2.00;1.90;;;;;;;;;;5030798;28;20242;-80
2022/11/17 07:39:34;;;;;;;3.23;2.10;;;;;;;;;;5026504;28;20210;-80
2022/11/17 07:42:01;;;;;;;2.33;1.70;;;;;;;;;;5016713;28;20243;-80
2022/11/17 07:44:28;;;;;;;3.37;1.97;;;;;;;;;;5017914;28;20207;-80
2022/11/17 07:46:55;;;;;;;2.50;2.00;;;;;;;;;;5017137;28;20238;-80
2022/11/17 07:49:23;;;;;;;2.87;1.87;;;;;;;;;;5015725;28;20215;-80
2022/11/17 07:51:50;;;;;;;3.60;2.10;;;;;;;;;;5015116;28;20250;-80
2022/11/17 07:54:18;;;;;;;1.73;1.63;;;;;;;;;;5018376;28;20218;-80
2022/11/17 07:56:45;;;;;;;2.37;2.00;;;;;;;;;;5017013;28;20226;-80
2022/11/17 07:59:12;;;;;;;2.43;2.10;;;;;;;;;;5013769;28;20680;-80
2022/11/17 08:01:40;;;;;;;2.53;2.33;;;;;;;;;;5015160;28;21023;-80
2022/11/17 08:04:08;;;;;;;2.73;1.90;;;;;;;;;;5016707;28;20310;-80
2022/11/17 08:06:36;;;;;;;2.03;1.77;;;;;;;;;;5014734;28;20573;-80
2022/11/17 08:09:05;;;;;;;4.67;2.13;;;;;;;;;;5016984;28;20212;-81
2022/11/17 08:11:33;;;;;;;6.00;2.47;;;;;;;;;;5021670;28;20235;-80
2022/11/17 08:14:00;;;;;;;5.97;2.10;;;;;;;;;;5021581;28;20661;-80
2022/11/17 08:16:29;;;;;;;3.70;2.30;;;;;;;;;;5019619;28;20731;-80
2022/11/17 08:18:57;;;;;;;3.20;1.63;;;;;;;;;;5018587;28;20284;-80
2022/11/17 08:21:24;;;;;;;2.23;1.80;;;;;;;;;;5019922;28;20239;-79
2022/11/17 08:23:53;;;;;;;2.47;1.83;;;;;;;;;;5021194;28;20302;-79
2022/11/17 08:26:20;;;;;;;5.20;1.97;;;;;;;;;;5021002;28;20230;-79
2022/11/17 08:28:49;;;;;;;2.83;1.73;;;;;;;;;;5023078;28;20221;-81
2022/11/17 08:31:16;;;;;;;4.00;1.67;;;;;;;;;;5020388;28;20227;-80
2022/11/17 08:33:43;;;;;;;4.47;2.40;;;;;;;;;;5020732;28;20211;-80
2022/11/17 08:36:10;;;;;;;6.00;2.17;;;;;;;;;;5020762;28;20250;-79
2022/11/17 08:38:37;;;;;;;2.20;1.80;;;;;;;;;;5020570;28;20629;-79
2022/11/17 08:41:06;;;;;;;4.83;1.90;;;;;;;;;;5021485;28;20239;-79
2022/11/17 08:43:33;;;;;;;3.60;1.90;;;;;;;;;;5021195;28;20215;-80
2022/11/17 08:46:01;;;;;;;2.47;2.00;;;;;;;;;;5018118;28;20229;-80
2022/11/17 08:48:30;;;;;;;2.23;1.40;;;;;;;;;;5022769;28;20219;-80
2022/11/17 08:50:57;;;;;;;3.80;1.87;;;;;;;;;;5021280;28;20285;-79
2022/11/17 08:53:24;;;;;;;2.37;1.70;;;;;;;;;;5021771;28;20238;-79
2022/11/17 08:55:51;;;;;;;5.30;2.23;;;;;;;;;;5021301;28;20234;-79
2022/11/17 08:58:19;;;;;;;4.50;1.90;;;;;;;;;;5022895;28;20219;-80
2022/11/17 09:00:46;;;;;;;2.83;2.00;;;;;;;;;;5023859;28;20227;-79
2022/11/17 09:03:15;;;;;;;2.93;1.80;;;;;;;;;;5021006;28;20210;-79
2022/11/17 09:05:43;;;;;;;3.63;1.60;;;;;;;;;;5022290;28;20234;-79
2022/11/17 09:08:12;;;;;;;3.57;1.63;;;;;;;;;;5023668;28;20234;-80
2022/11/17 09:10:39;;;;;;;3.37;1.57;;;;;;;;;;5021572;28;20301;-79
2022/11/17 09:13:06;;;;;;;4.70;1.67;;;;;;;;;;5021645;28;20219;-79
2022/11/17 09:15:33;;;;;;;2.97;1.93;;;;;;;;;;5022237;28;20233;-79
2022/11/17 09:18:02;;;;;;;2.40;1.67;;;;;;;;;;5021159;28;20702;-79
2022/11/17 09:20:31;;;;;;;6.30;2.67;;;;;;;;;;5019141;28;20226;-79
2022/11/17 09:23:01;;;;;;;3.50;1.77;;;;;;;;;;5018386;28;20218;-79
2022/11/17 09:25:28;;;;;;;4.13;1.87;;;;;;;;;;5021425;28;20219;-80
2022/11/17 09:27:55;;;;;;;8.03;2.17;;;;;;;;;;5018318;28;20607;-81
2022/11/17 09:30:22;;;;;;;2.10;1.57;;;;;;;;;;5022219;28;20702;-81
2022/11/17 09:32:49;;;;;;;2.03;1.80;;;;;;;;;;5015226;28;20608;-80
2022/11/17 09:35:16;;;;;;;10.67;2.20;;;;;;;;;;5021168;28;20203;-79
2022/11/17 09:37:45;;;;;;;3.07;1.67;;;;;;;;;;5015124;28;20702;-79
2022/11/17 09:40:14;;;;;;;4.80;1.90;;;;;;;;;;5021406;28;20269;-79
2022/11/17 09:42:41;;;;;;;4.33;1.90;;;;;;;;;;5021224;28;20238;-79
2022/11/17 09:45:12;;;;;;;4.33;1.93;;;;;;;;;;5021630;28;20210;-80
2022/11/17 09:47:41;;;;;;;3.93;2.13;;;;;;;;;;5015204;28;20238;-79
2022/11/17 09:50:16;;;;;;;3.60;1.93;;;;;;;;;;5017294;28;20234;-80
2022/11/17 09:52:50;;;;;;;4.50;2.33;;;;;;;;;;5018707;28;20241;-79
2022/11/17 09:55:23;;;;;;;3.17;1.97;;;;;;;;;;5017411;28;20954;-80
2022/11/17 09:57:53;;;;;;;4.77;1.90;;;;;;;;;;5019344;28;20729;-81
2022/11/17 10:00:21;;;;;;;3.33;1.60;;;;;;;;;;5020914;28;20216;-80
2022/11/17 10:02:48;;;;;;;5.77;2.03;;;;;;;;;;5018642;28;20227;-80
2022/11/17 10:05:16;;;;;;;5.60;2.93;;;;;;;;;;5020983;28;20217;-80
2022/11/17 10:07:47;;;;;;;2.40;2.00;;;;;;;;;;5018693;28;20234;-79
2022/11/17 10:10:17;;;;;;;4.63;2.87;;;;;;;;;;5019689;28;20203;-79
2022/11/17 10:12:48;;;;;;;6.27;1.90;;;;;;;;;;5019711;28;20226;-80
2022/11/17 10:15:22;;;;;;;4.33;2.07;;;;;;;;;;5019875;28;20211;-81
2022/11/17 10:17:50;;;;;;;5.87;1.97;;;;;;;;;;5018652;28;20247;-80
2022/11/17 10:20:18;;;;;;;4.13;2.17;;;;;;;;;;5018582;28;20222;-81
2022/11/17 10:22:47;;;;;;;7.07;2.00;;;;;;;;;;5019539;28;20235;-80
2022/11/17 10:25:35;;;;;;;4.27;1.90;;;;;;;;;;5019988;28;20225;-80
2022/11/17 10:28:02;;;;;;;7.10;2.67;;;;;;;;;;5017086;28;20662;-80
2022/11/17 10:30:29;;;;;;;5.47;2.03;;;;;;;;;;5017537;28;20207;-80
2022/11/17 10:32:57;;;;;;;5.07;2.23;;;;;;;;;;5020472;28;20230;-81
2022/11/17 10:35:26;;;;;;;3.43;1.87;;;;;;;;;;5014345;28;20572;-80
2022/11/17 10:37:56;;;;;;;6.30;2.30;;;;;;;;;;5020333;28;20602;-81
2022/11/17 10:40:25;;;;;;;2.23;1.53;;;;;;;;;;5018182;28;20590;-80
2022/11/17 10:42:57;;;;;;;5.20;1.90;;;;;;;;;;5019542;28;20210;-81
2022/11/17 10:45:24;;;;;;;8.17;2.03;;;;;;;;;;5019753;28;20654;-80
2022/11/17 10:47:51;;;;;;;7.33;2.00;;;;;;;;;;5020033;28;20238;-81
2022/11/17 10:50:20;;;;;;;6.37;2.07;;;;;;;;;;5022865;28;20210;-81
2022/11/17 10:52:48;;;;;;;6.23;2.37;;;;;;;;;;5017494;28;20235;-81
2022/11/17 10:55:27;;;;;;;7.97;1.70;;;;;;;;;;5019902;28;20210;-81
2022/11/17 10:57:55;;;;;;;5.83;2.30;;;;;;;;;;5018803;28;20597;-81
2022/11/17 11:00:23;;;;;;;7.90;2.13;;;;;;;;;;5019560;28;20234;-80
2022/11/17 11:03:03;;;;;;;5.53;2.10;;;;;;;;;;5020157;28;20214;-80
2022/11/17 11:05:30;;;;;;;3.17;2.07;;;;;;;;;;5018451;28;20280;-80
2022/11/17 11:08:08;;;;;;;4.67;1.93;;;;;;;;;;5016908;28;20246;-80
2022/11/17 11:10:37;;;;;;;6.90;1.80;;;;;;;;;;4997418;28;20320;-81
2022/11/17 11:13:07;;;;;;;7.40;2.13;;;;;;;;;;4993484;28;20223;-81
2022/11/17 11:15:35;;;;;;;3.90;2.10;;;;;;;;;;4996644;28;20655;-81
2022/11/17 11:18:02;;;;;;;3.23;1.63;;;;;;;;;;4995290;28;20238;-81
2022/11/17 11:20:34;;;;;;;3.03;1.60;;;;;;;;;;4998448;28;20245;-81
2022/11/17 11:23:04;;;;;;;5.70;1.87;;;;;;;;;;4997126;28;20207;-81
2022/11/17 11:25:35;;;;;;;1.90;1.70;;;;;;;;;;4994944;28;20541;-81
2022/11/17 11:28:12;;;;;;;3.63;2.00;;;;;;;;;;4997962;28;20480;-81
2022/11/17 11:30:43;;;;;;;1.77;1.47;;;;;;;;;;5001904;28;20214;-81
2022/11/17 11:33:18;;;;;;;5.10;2.00;;;;;;;;;;4999939;28;20230;-81
2022/11/17 11:35:49;;;;;;;5.53;1.90;;;;;;;;;;5000918;28;20685;-80
2022/11/17 11:38:21;;;;;;;3.47;1.90;;;;;;;;;;4999558;28;20214;-81
2022/11/17 11:40:56;;;;;;;4.37;1.93;;;;;;;;;;4997014;28;20520;-81
2022/11/17 11:43:28;;;;;;;1.97;1.43;;;;;;;;;;5001502;28;20207;-82
2022/11/17 11:45:58;;;;;;;3.63;1.80;;;;;;;;;;5002359;28;20235;-81
2022/11/17 11:48:27;;;;;;;7.53;2.03;;;;;;;;;;5002898;28;20226;-82
2022/11/17 11:50:57;;;;;;;2.67;1.97;;;;;;;;;;5003458;28;20667;-82
2022/11/17 11:53:29;;;;;;;3.20;1.80;;;;;;;;;;5006030;28;20647;-82
2022/11/17 11:56:05;;;;;;;4.10;1.90;;;;;;;;;;5003015;28;20252;-81
2022/11/17 11:58:33;;;;;;;2.20;2.03;;;;;;;;;;5003551;28;20215;-82
2022/11/17 12:01:05;;;;;;;5.67;2.20;;;;;;;;;;5001002;28;20226;-82
2022/11/17 12:03:35;;;;;;;3.40;1.70;;;;;;;;;;5000600;28;20218;-81
2022/11/17 12:06:38;;;;;;;4.37;2.00;;;;;;;;;;4999462;28;20692;-82
2022/11/17 12:08:58;;;;;;;4.63;1.80;;;;;;;;;;5002707;28;20360;-82
2022/11/17 12:14:16;;;;;;;6.07;1.70;;;;;;;;;;5003796;28;20312;-82
2022/11/17 12:16:44;;;;;;;7.67;2.20;;;;;;;;;;5002052;28;20238;-82
2022/11/17 12:19:25;;;;;;;7.07;2.33;;;;;;;;;;5000700;28;20227;-82
2022/11/17 12:21:54;;;;;;;5.33;2.17;;;;;;;;;;5003339;28;20235;-81
2022/11/17 12:24:25;;;;;;;4.43;2.00;;;;;;;;;;4999282;28;20218;-81
2022/11/17 12:26:52;;;;;;;6.70;2.83;;;;;;;;;;5002079;28;20997;-81
2022/11/17 12:29:32;;;;;;;9.43;2.87;;;;;;;;;;5000392;28;20221;-81
2022/11/17 12:32:01;;;;;;;5.33;2.37;;;;;;;;;;5002750;28;20238;-81
2022/11/17 12:34:30;;;;;;;5.07;2.60;;;;;;;;;;5000894;28;20320;-81
2022/11/17 12:37:08;;;;;;;4.77;2.80;;;;;;;;;;5003070;28;20243;-81
2022/11/17 12:39:55;;;;;;;5.67;2.30;;;;;;;;;;5004238;28;20218;-82
2022/11/17 12:42:22;;;;;;;5.97;2.30;;;;;;;;;;5000050;28;20230;-82
2022/11/17 12:44:51;;;;;;;5.97;2.73;;;;;;;;;;5003602;28;20214;-82
2022/11/17 12:47:19;;;;;;;4.97;2.90;;;;;;;;;;5000493;28;20227;-82
2022/11/17 12:49:48;;;;;;;5.20;2.50;;;;;;;;;;5001862;28;21000;-81
2022/11/17 12:52:20;;;;;;;4.83;2.30;;;;;;;;;;4999572;28;20685;-82
2022/11/17 12:54:55;;;;;;;5.17;2.03;;;;;;;;;;5003664;28;20211;-81
2022/11/17 12:57:25;;;;;;;5.60;2.40;;;;;;;;;;5000471;28;20241;-82
2022/11/17 13:00:06;;;;;;;5.30;2.47;;;;;;;;;;4999567;28;20211;-81
2022/11/17 13:02:41;;;;;;;5.17;2.93;;;;;;;;;;4999239;28;20308;-81
2022/11/17 13:05:13;;;;;;;5.30;2.10;;;;;;;;;;4997901;28;20397;-81
2022/11/17 13:07:40;;;;;;;6.60;2.73;;;;;;;;;;4999293;28;20235;-81
2022/11/17 13:10:22;;;;;;;9.07;2.00;;;;;;;;;;4998660;28;20211;-81
2022/11/17 13:12:49;;;;;;;2.40;1.63;;;;;;;;;;5000161;28;20233;-81
2022/11/17 13:15:23;;;;;;;4.43;2.30;;;;;;;;;;5002107;28;20217;-80
2022/11/17 13:17:52;;;;;;;6.90;2.57;;;;;;;;;;5010628;28;20280;-80
2022/11/17 13:20:23;;;;;;;3.90;2.27;;;;;;;;;;5008916;28;20225;-80
2022/11/17 13:22:59;;;;;;;3.23;1.50;;;;;;;;;;5003670;28;20781;-80
2022/11/17 13:25:26;;;;;;;2.47;1.93;;;;;;;;;;5006356;28;20467;-80
2022/11/17 13:27:53;;;;;;;7.20;2.10;;;;;;;;;;5021998;28;20245;-81
2022/11/17 13:30:23;;;;;;;1.93;1.80;;;;;;;;;;4998967;28;20222;-80
2022/11/17 13:32:51;;;;;;;2.93;2.03;;;;;;;;;;5001409;28;20230;-81
2022/11/17 13:35:22;;;;;;;3.93;2.03;;;;;;;;;;4999428;28;20277;-78
2022/11/17 13:38:02;;;;;;;3.17;2.03;;;;;;;;;;4999375;28;20243;-80
2022/11/17 13:40:29;;;;;;;7.57;2.00;;;;;;;;;;4999835;28;20679;-80
2022/11/17 13:42:57;;;;;;;1.77;1.67;;;;;;;;;;5000055;28;20210;-80
2022/11/17 13:45:26;;;;;;;2.90;1.87;;;;;;;;;;5001308;28;20255;-81
2022/11/17 13:47:53;;;;;;;2.43;1.50;;;;;;;;;;5001702;28;20227;-80
2022/11/17 13:50:21;;;;;;;3.37;2.30;;;;;;;;;;4998256;28;20276;-81
2022/11/17 13:52:53;;;;;;;5.00;2.57;;;;;;;;;;4994423;28;20233;-80
2022/11/17 13:55:21;;;;;;;3.80;2.57;;;;;;;;;;4995041;28;20594;-79
2022/11/17 13:57:53;;;;;;;3.53;2.10;;;;;;;;;;4992323;28;20238;-79
2022/11/17 14:00:21;;;;;;;1.97;1.67;;;;;;;;;;4994347;28;20232;-79
2022/11/17 14:02:53;;;;;;;4.03;1.90;;;;;;;;;;4994208;28;20226;-81
2022/11/17 14:05:22;;;;;;;2.87;2.00;;;;;;;;;;4992258;28;20337;-79
2022/11/17 14:07:51;;;;;;;3.30;1.90;;;;;;;;;;4990997;28;20241;-80
2022/11/17 14:10:30;;;;;;;6.13;2.20;;;;;;;;;;4993626;28;20219;-80
2022/11/17 14:13:15;;;;;;;4.80;2.20;;;;;;;;;;4991398;28;20250;-81
2022/11/17 14:15:43;;;;;;;4.10;1.93;;;;;;;;;;4992528;28;20231;-80
2022/11/17 14:18:21;;;;;;;7.00;2.30;;;;;;;;;;4992587;28;20686;-81
2022/11/17 14:20:48;;;;;;;4.43;2.83;;;;;;;;;;4991615;28;20234;-80
2022/11/17 14:23:17;;;;;;;4.37;2.47;;;;;;;;;;4993796;28;20204;-80
2022/11/17 14:25:47;;;;;;;6.33;2.53;;;;;;;;;;4994672;28;20239;-80
2022/11/17 14:28:14;;;;;;;6.97;3.30;;;;;;;;;;4989165;28;20796;-80
2022/11/17 14:30:41;;;;;;;2.67;2.43;;;;;;;;;;4992174;28;20244;-80
2022/11/17 14:33:08;;;;;;;7.30;2.40;;;;;;;;;;4990763;28;20636;-80
2022/11/17 14:35:37;;;;;;;7.90;2.57;;;;;;;;;;4991696;28;20207;-81
2022/11/17 14:38:04;;;;;;;7.33;3.30;;;;;;;;;;4991589;28;20632;-80
2022/11/17 14:40:32;;;;;;;9.83;2.47;;;;;;;;;;4994931;28;20219;-80
2022/11/17 14:42:59;;;;;;;7.13;2.67;;;;;;;;;;4989888;28;20214;-80
2022/11/17 14:45:26;;;;;;;7.07;3.50;;;;;;;;;;4994951;28;20214;-79
2022/11/17 14:47:53;;;;;;;6.50;3.23;;;;;;;;;;4990275;28;20230;-79
2022/11/17 14:50:20;;;;;;;4.63;2.73;;;;;;;;;;4992654;28;20214;-79
2022/11/17 14:52:48;;;;;;;8.30;3.03;;;;;;;;;;4992701;28;20235;-80
2022/11/17 14:55:15;;;;;;;3.23;2.03;;;;;;;;;;4992815;28;20227;-81
2022/11/17 14:57:42;;;;;;;3.17;2.43;;;;;;;;;;4991727;28;20230;-81
2022/11/17 15:00:10;;;;;;;3.97;2.13;;;;;;;;;;4994847;28;20250;-81
2022/11/17 15:02:38;;;;;;;5.90;2.57;;;;;;;;;;4992894;28;20242;-81
2022/11/17 15:05:05;;;;;;;5.53;2.70;;;;;;;;;;4992149;28;20311;-80
2022/11/17 15:07:32;;;;;;;4.33;2.20;;;;;;;;;;4994028;28;20357;-80
2022/11/17 15:10:01;;;;;;;3.70;2.00;;;;;;;;;;4995008;28;21036;-81
2022/11/17 15:12:28;;;;;;;4.10;2.47;;;;;;;;;;4992356;28;20245;-80
2022/11/17 15:14:56;;;;;;;5.63;2.00;;;;;;;;;;4990783;28;20579;-80
2022/11/17 15:17:23;;;;;;;4.67;2.50;;;;;;;;;;4990836;28;20242;-79
2022/11/17 15:19:50;;;;;;;4.60;2.27;;;;;;;;;;4990523;28;20754;-80
2022/11/17 15:22:18;;;;;;;5.67;2.57;;;;;;;;;;4992183;28;20656;-81
2022/11/17 15:24:45;;;;;;;4.33;1.77;;;;;;;;;;4990192;28;20220;-81
2022/11/17 15:27:13;;;;;;;3.43;2.13;;;;;;;;;;4992367;28;20235;-81
2022/11/17 15:29:42;;;;;;;3.80;2.10;;;;;;;;;;4990837;28;20277;-82
2022/11/17 15:32:09;;;;;;;3.23;2.13;;;;;;;;;;4994216;28;20235;-82